Sea Pie — WDH3746 — position and weather

sailwx.info

Track history (hours):
 
Tides and Currents Weather Stations Pressure Air Temp Water Temp Dewpoint Dewpoint Depression Visibility Wind Speed Wind Dir Waves Ship Positions

Sea Pie

Owner: Frost, Jeff E, Olympia, WA. More information available from US FCC via Universal Licensing System and Coast Guard Vessel Documentation Center.

Last reported at 2018-Apr-28 21:37 UTC. Time now 2018-May-24 07:49 UTC.
Position N 48°50' W 123°27'.
Warning: this ship's position is 25 days out of date.

Length 16 m.

Type: Pleasure craft. MMSI: 367610460.

Date/timePositionNaut miles runAvg speedWind from/ knotsBaromVisibWave heightAir tempDewpointWater temp
2018-Apr-28 21:37N 48°50' W 123°27'22 7.4
2018-Apr-28 18:38N 48°36' W 123°02'4 9.7
2018-Apr-28 18:11N 48°35' W 122°55'2 9.9
2018-Apr-28 17:58N 48°34' W 122°52'5 8.8
2018-Apr-28 17:25N 48°32' W 122°46'1 0.0
2018-Apr-27 20:01N 48°32' W 122°45'1 9.4
2018-Apr-27 19:53N 48°32' W 122°47'3 9.0
2018-Apr-27 19:30N 48°34' W 122°51'4 8.2
2018-Apr-27 18:59N 48°33' W 122°57'  
2018-Apr-25 12:39N 48°37' W 123°09'0 0.0
2018-Apr-25 12:30N 48°37' W 123°09'0 0.0
2018-Apr-25 12:00N 48°37' W 123°09'0 0.0
2018-Apr-25 10:57N 48°37' W 123°09'0 0.0
2018-Apr-25 09:39N 48°37' W 123°09'0 0.0
2018-Apr-25 09:21N 48°37' W 123°09'0 0.0
2018-Apr-25 08:57N 48°37' W 123°09'  
2018-Apr-22 11:27N 48°37' W 123°09'0 0.0
2018-Apr-22 10:48N 48°37' W 123°09'0 0.0
2018-Apr-22 10:09N 48°37' W 123°09'0 0.0
2018-Apr-22 09:57N 48°37' W 123°09'0 0.0
2018-Apr-21 13:45N 48°37' W 123°09'0 0.0
2018-Apr-21 13:27N 48°37' W 123°09'0 0.0
2018-Apr-21 12:18N 48°37' W 123°09'0 0.0
2018-Apr-21 11:12N 48°37' W 123°09'0 0.0
2018-Apr-20 13:51N 48°37' W 123°09'0 0.0
2018-Apr-20 12:39N 48°37' W 123°09'0 0.0
2018-Apr-20 12:30N 48°37' W 123°09'0 0.0
2018-Apr-20 11:15N 48°37' W 123°09'0 0.0
2018-Apr-19 13:15N 48°37' W 123°09'0 0.0
2018-Apr-19 12:45N 48°37' W 123°09'0 0.0
2018-Apr-19 11:27N 48°37' W 123°09'0 0.0
2018-Apr-19 10:57N 48°37' W 123°09'0 0.0
2018-Apr-19 06:36N 48°37' W 123°09'0 0.0
2018-Apr-19 06:30N 48°37' W 123°09'  
Track history (hours):
 
Tides and Currents Weather Stations Pressure Air Temp Water Temp Dewpoint Dewpoint Depression Visibility Wind Speed Wind Dir Waves Ship Positions

Sea Pie

Owner: Frost, Jeff E, Olympia, WA. More information available from US FCC via Universal Licensing System and Coast Guard Vessel Documentation Center.

Last reported at 2018-Apr-28 21:37 UTC. Time now 2018-May-24 07:49 UTC.
Position N 48°50' W 123°27'.
Warning: this ship's position is 25 days out of date.

Length 16 m.

Type: Pleasure craft. MMSI: 367610460.

Date/timePositionNaut miles runAvg speedWind from/ knotsBaromVisibWave heightAir tempDewpointWater temp
2018-Apr-28 21:37N 48°50' W 123°27'22 7.4
2018-Apr-28 18:38N 48°36' W 123°02'4 9.7
2018-Apr-28 18:11N 48°35' W 122°55'2 9.9
2018-Apr-28 17:58N 48°34' W 122°52'5 8.8
2018-Apr-28 17:25N 48°32' W 122°46'1 0.0
2018-Apr-27 20:01N 48°32' W 122°45'1 9.4
2018-Apr-27 19:53N 48°32' W 122°47'3 9.0
2018-Apr-27 19:30N 48°34' W 122°51'4 8.2
2018-Apr-27 18:59N 48°33' W 122°57'  
2018-Apr-25 12:39N 48°37' W 123°09'0 0.0
2018-Apr-25 12:30N 48°37' W 123°09'0 0.0
2018-Apr-25 12:00N 48°37' W 123°09'0 0.0
2018-Apr-25 10:57N 48°37' W 123°09'0 0.0
2018-Apr-25 09:39N 48°37' W 123°09'0 0.0
2018-Apr-25 09:21N 48°37' W 123°09'0 0.0
2018-Apr-25 08:57N 48°37' W 123°09'  
2018-Apr-22 11:27N 48°37' W 123°09'0 0.0
2018-Apr-22 10:48N 48°37' W 123°09'0 0.0
2018-Apr-22 10:09N 48°37' W 123°09'0 0.0
2018-Apr-22 09:57N 48°37' W 123°09'0 0.0
2018-Apr-21 13:45N 48°37' W 123°09'0 0.0
2018-Apr-21 13:27N 48°37' W 123°09'0 0.0
2018-Apr-21 12:18N 48°37' W 123°09'0 0.0
2018-Apr-21 11:12N 48°37' W 123°09'0 0.0
2018-Apr-20 13:51N 48°37' W 123°09'0 0.0
2018-Apr-20 12:39N 48°37' W 123°09'0 0.0
2018-Apr-20 12:30N 48°37' W 123°09'0 0.0
2018-Apr-20 11:15N 48°37' W 123°09'0 0.0
2018-Apr-19 13:15N 48°37' W 123°09'0 0.0
2018-Apr-19 12:45N 48°37' W 123°09'0 0.0
2018-Apr-19 11:27N 48°37' W 123°09'0 0.0
2018-Apr-19 10:57N 48°37' W 123°09'0 0.0
2018-Apr-19 06:36N 48°37' W 123°09'0 0.0
2018-Apr-19 06:30N 48°37' W 123°09'  

Dump ship's entire track history